Kezdőlap
METAR-TAF:

METAR-TAF

Repülőterek :

Dallas-Fort Worth, Texas, Amerikai Egyesült Államok

földrajzi szélesség: 32-53-49N, földrajzi hosszúság: 097-01-19W, magasság: 183 m

Jelenlegi meteorológiai megfigyelések

A jelentés 1 órával és 1 perccel ezelõtt készült, 18:53 UTC
Dél-délnyugati szél 5 kt
Hőmérséklet 21°C
Páratartalom 26%
Légköri nyomás 1019 hPa
Látótávolság: 16.1 km
Kevés felhő 30000 lábon

METAR: KDFW 161853Z 20005KT 10SM FEW300 21/01 A3008 RMK AO2 SLP181 T02110011

Idő: 13:54 (19:54 UTC)

Előrejelzés

A jelentés 2 órával és 32 perccel ezelõtt készült, 17:22 UTC
Az előrejelzés 16-én 18 óra UTC és 17-én 24 óra UTC között érvényes
Dél-délnyugati szél 8 kt
Látótávolság: 10 km
Szórványos felhőzet 30000 lábon

TAF: KDFW 161722Z 1618/1724 21008KT P6SM SCT300

Meteorológiai megfigyelések és előrejelzések több, mint 4000 repülőtéren (METAR és TAF jelentéseket).

A térképen piros és sárga pontok jelzik az elérhető meteorológiai állomásokat.

Mozgassa az egeret a pont fölött, hogy megjelenjen az állomás neve.

Azután kattintson az időjárási megfigyelések és előrejelzések megtekintéséhez.

A térkép megváltoztatása: kattintson a fekete keresztel jelölt zöld gombra ráközelítéshez, a vonallal jelölt zöld gombra távolításhoz, vagy a zöld nyilakra a szomszédos térképek eléréséhez.


METAR-TAF: